QTR4X OTHH-OPKC
Flight info
| Callsign | QTR4X |
|---|---|
| Flight time | N/A |
| Altitude | 39000 |
| Route | KUPRO N300 GIDOB DCT TONVO A777 NADSO B524 ALPOR G216 LAKIV |
| Aircraft | A35K/H-SDE2E3GHIJ3J4J5LM1ORWXY/LB1D1 |
Departure
| Time | 2026-05-07 06:21 |
|---|---|
| Airport | Hamad International Airport (OTHH) |
Arrival
| Time | N/A |
|---|---|
| Airport | Jinnah International Airport (OPKC) |
| Time | Latitude | Longitude | Altitude | Speed | Heading |
|---|---|---|---|---|---|
| 2026-05-07 05:53 | 25.26608 | 51.61265 | 28 ft | 0 kts | 248° |
| 2026-05-07 06:11 | 25.26615 | 51.61285 | 27 ft | 4 kts | 248° |
| 2026-05-07 06:11 | 25.26625 | 51.61313 | 27 ft | 4 kts | 248° |
| 2026-05-07 06:11 | 25.26635 | 51.61339 | 25 ft | 3 kts | 248° |
| 2026-05-07 06:11 | 25.26651 | 51.61359 | 24 ft | 4 kts | 153° |
| 2026-05-07 06:12 | 25.26667 | 51.61348 | 27 ft | 4 kts | 146° |
| 2026-05-07 06:12 | 25.26681 | 51.61339 | 28 ft | 0 kts | 158° |
| 2026-05-07 06:14 | 25.26667 | 51.61345 | 27 ft | 10 kts | 159° |
| 2026-05-07 06:14 | 25.26578 | 51.61384 | 28 ft | 15 kts | 158° |
| 2026-05-07 06:14 | 25.26469 | 51.61432 | 28 ft | 19 kts | 159° |
| 2026-05-07 06:15 | 25.26402 | 51.61551 | 28 ft | 22 kts | 73° |
| 2026-05-07 06:15 | 25.26462 | 51.61718 | 28 ft | 25 kts | 68° |
| 2026-05-07 06:15 | 25.26526 | 51.61902 | 28 ft | 24 kts | 82° |
| 2026-05-07 06:15 | 25.26463 | 51.61984 | 28 ft | 15 kts | 158° |
| 2026-05-07 06:16 | 25.26334 | 51.62040 | 29 ft | 22 kts | 159° |
| 2026-05-07 06:16 | 25.26184 | 51.62104 | 29 ft | 24 kts | 159° |
| 2026-05-07 06:16 | 25.26019 | 51.62176 | 29 ft | 27 kts | 159° |
| 2026-05-07 06:16 | 25.25840 | 51.62254 | 28 ft | 29 kts | 158° |
| 2026-05-07 06:17 | 25.25649 | 51.62340 | 28 ft | 31 kts | 158° |
| 2026-05-07 06:17 | 25.25480 | 51.62432 | 28 ft | 20 kts | 118° |
| 2026-05-07 06:17 | 25.25498 | 51.62530 | 28 ft | 13 kts | 68° |
| 2026-05-07 06:17 | 25.25507 | 51.62555 | 28 ft | 0 kts | 68° |
| 2026-05-07 06:19 | 25.25513 | 51.62570 | 28 ft | 0 kts | 68° |
| 2026-05-07 06:20 | 25.25527 | 51.62611 | 29 ft | 12 kts | 68° |
| 2026-05-07 06:20 | 25.25613 | 51.62661 | 29 ft | 18 kts | 349° |
| 2026-05-07 06:21 | 25.25925 | 51.62527 | 29 ft | 86 kts | 339° |
| 2026-05-07 06:21 | 25.26709 | 51.62182 | 31 ft | 155 kts | 338° |
| 2026-05-07 06:21 | 25.27868 | 51.61659 | 263 ft | 194 kts | 339° |
| 2026-05-07 06:21 | 25.29116 | 51.61106 | 1133 ft | 190 kts | 340° |
| 2026-05-07 06:22 | 25.30373 | 51.60552 | 1881 ft | 202 kts | 342° |
| 2026-05-07 06:22 | 25.33147 | 51.59352 | 2964 ft | 220 kts | 342° |
| 2026-05-07 06:22 | 25.34628 | 51.59244 | 3580 ft | 214 kts | 18° |
| 2026-05-07 06:23 | 25.35820 | 51.60196 | 3939 ft | 219 kts | 57° |
| 2026-05-07 06:23 | 25.36149 | 51.61848 | 4454 ft | 230 kts | 96° |
| 2026-05-07 06:23 | 25.35925 | 51.63580 | 5187 ft | 231 kts | 94° |
| 2026-05-07 06:23 | 25.35918 | 51.65343 | 5967 ft | 229 kts | 83° |
| 2026-05-07 06:24 | 25.36172 | 51.67091 | 6682 ft | 231 kts | 76° |
| 2026-05-07 06:24 | 25.36590 | 51.68816 | 7387 ft | 234 kts | 73° |
| 2026-05-07 06:24 | 25.36805 | 51.70602 | 8122 ft | 238 kts | 92° |
| 2026-05-07 06:24 | 25.36526 | 51.72481 | 8580 ft | 260 kts | 102° |
| 2026-05-07 06:25 | 25.36086 | 51.74501 | 8954 ft | 280 kts | 103° |
| 2026-05-07 06:25 | 25.35622 | 51.76629 | 9633 ft | 288 kts | 102° |
| 2026-05-07 06:25 | 25.35167 | 51.78799 | 10347 ft | 295 kts | 102° |
| 2026-05-07 06:25 | 25.34698 | 51.81091 | 10713 ft | 316 kts | 102° |
| 2026-05-07 06:26 | 25.34205 | 51.83540 | 11036 ft | 336 kts | 102° |
| 2026-05-07 06:26 | 25.33685 | 51.86111 | 11589 ft | 346 kts | 102° |
| 2026-05-07 06:26 | 25.33160 | 51.88727 | 12344 ft | 350 kts | 102° |
| 2026-05-07 06:26 | 25.32637 | 51.91369 | 13091 ft | 355 kts | 102° |
| 2026-05-07 06:27 | 25.32110 | 51.94053 | 13816 ft | 360 kts | 103° |
| 2026-05-07 06:27 | 25.31568 | 51.96771 | 14491 ft | 364 kts | 103° |
| 2026-05-07 06:27 | 25.31020 | 51.99516 | 15160 ft | 368 kts | 103° |
| 2026-05-07 06:27 | 25.30462 | 52.02297 | 15818 ft | 373 kts | 103° |
| 2026-05-07 06:28 | 25.29896 | 52.05110 | 16467 ft | 377 kts | 103° |
| 2026-05-07 06:28 | 25.29327 | 52.07953 | 17126 ft | 381 kts | 103° |
| 2026-05-07 06:28 | 25.28613 | 52.10786 | 17762 ft | 385 kts | 109° |
| 2026-05-07 06:28 | 25.27738 | 52.13605 | 18364 ft | 390 kts | 111° |
| 2026-05-07 06:29 | 25.26834 | 52.16449 | 18930 ft | 395 kts | 110° |
| 2026-05-07 06:29 | 25.25926 | 52.19323 | 19516 ft | 399 kts | 110° |
| 2026-05-07 06:29 | 25.25006 | 52.22236 | 20110 ft | 403 kts | 110° |
| 2026-05-07 06:29 | 25.24078 | 52.25175 | 20729 ft | 408 kts | 110° |
| 2026-05-07 06:30 | 25.23140 | 52.28146 | 21323 ft | 412 kts | 110° |
| 2026-05-07 06:30 | 25.22190 | 52.31152 | 21924 ft | 417 kts | 110° |
| 2026-05-07 06:30 | 25.21231 | 52.34191 | 22516 ft | 422 kts | 110° |
| 2026-05-07 06:30 | 25.20258 | 52.37265 | 23131 ft | 426 kts | 110° |
| 2026-05-07 06:31 | 25.19609 | 52.39315 | 23517 ft | 429 kts | 110° |
| 2026-05-07 06:31 | 25.18281 | 52.43516 | 24180 ft | 437 kts | 110° |
| 2026-05-07 06:31 | 25.17273 | 52.46700 | 24624 ft | 441 kts | 111° |
| 2026-05-07 06:31 | 25.16260 | 52.49897 | 24828 ft | 442 kts | 111° |
| 2026-05-07 06:32 | 25.15244 | 52.53101 | 24875 ft | 444 kts | 111° |
| 2026-05-07 06:32 | 25.14220 | 52.56326 | 24876 ft | 446 kts | 111° |
| 2026-05-07 06:32 | 25.13088 | 52.59514 | 24878 ft | 446 kts | 115° |
| 2026-05-07 06:32 | 25.11785 | 52.62631 | 25126 ft | 449 kts | 118° |
| 2026-05-07 06:33 | 25.10396 | 52.65725 | 25660 ft | 452 kts | 119° |
| 2026-05-07 06:33 | 25.08984 | 52.68783 | 26209 ft | 456 kts | 120° |
| 2026-05-07 06:33 | 25.07528 | 52.71916 | 26719 ft | 461 kts | 120° |
| 2026-05-07 06:33 | 25.06131 | 52.75121 | 27225 ft | 467 kts | 115° |
| 2026-05-07 06:34 | 25.05078 | 52.78540 | 27722 ft | 475 kts | 109° |
| 2026-05-07 06:34 | 25.04179 | 52.82067 | 28177 ft | 480 kts | 108° |
| 2026-05-07 06:34 | 25.03340 | 52.85654 | 28692 ft | 485 kts | 107° |
| 2026-05-07 06:34 | 25.02527 | 52.89283 | 29136 ft | 490 kts | 107° |
| 2026-05-07 06:35 | 25.01716 | 52.92954 | 29581 ft | 495 kts | 107° |
| 2026-05-07 06:35 | 25.00894 | 52.96660 | 30015 ft | 500 kts | 107° |
| 2026-05-07 06:35 | 25.00059 | 53.00399 | 30403 ft | 504 kts | 107° |
| 2026-05-07 06:35 | 24.99210 | 53.04165 | 30799 ft | 508 kts | 107° |
| 2026-05-07 06:36 | 24.98351 | 53.07952 | 31182 ft | 511 kts | 107° |
| 2026-05-07 06:36 | 24.97481 | 53.11765 | 31559 ft | 515 kts | 107° |
| 2026-05-07 06:36 | 24.96598 | 53.15604 | 31938 ft | 518 kts | 107° |
| 2026-05-07 06:36 | 24.95705 | 53.19467 | 32305 ft | 522 kts | 107° |
| 2026-05-07 06:37 | 24.94806 | 53.23355 | 32672 ft | 525 kts | 107° |
| 2026-05-07 06:37 | 24.93902 | 53.27263 | 33018 ft | 528 kts | 107° |
| 2026-05-07 06:37 | 24.92992 | 53.31192 | 33394 ft | 530 kts | 107° |
| 2026-05-07 06:37 | 24.92081 | 53.35129 | 33770 ft | 532 kts | 107° |
| 2026-05-07 06:38 | 24.91165 | 53.39086 | 34042 ft | 535 kts | 107° |
| 2026-05-07 06:38 | 24.90239 | 53.43068 | 34326 ft | 537 kts | 107° |
| 2026-05-07 06:38 | 24.89232 | 53.47028 | 34703 ft | 536 kts | 109° |
| 2026-05-07 06:38 | 24.88523 | 53.49623 | 34993 ft | 534 kts | 110° |
| 2026-05-07 06:39 | 24.87053 | 53.54837 | 35564 ft | 532 kts | 110° |
| 2026-05-07 06:39 | 24.85951 | 53.58722 | 35957 ft | 531 kts | 110° |
| 2026-05-07 06:39 | 24.84859 | 53.62602 | 36332 ft | 530 kts | 110° |
| 2026-05-07 06:39 | 24.83777 | 53.66483 | 36710 ft | 530 kts | 110° |
| 2026-05-07 06:40 | 24.82705 | 53.70359 | 37081 ft | 529 kts | 110° |
| 2026-05-07 06:40 | 24.82000 | 53.72917 | 37339 ft | 528 kts | 110° |
| 2026-05-07 06:40 | 24.80578 | 53.78087 | 37844 ft | 526 kts | 110° |
| 2026-05-07 06:40 | 24.79522 | 53.81928 | 38264 ft | 524 kts | 110° |
| 2026-05-07 06:41 | 24.78482 | 53.85706 | 38582 ft | 523 kts | 110° |
| 2026-05-07 06:41 | 24.77426 | 53.89536 | 38802 ft | 523 kts | 110° |
| 2026-05-07 06:41 | 24.75502 | 53.97255 | 38860 ft | 525 kts | 102° |
| 2026-05-07 06:42 | 24.75387 | 54.05298 | 38865 ft | 530 kts | 85° |
| 2026-05-07 06:42 | 24.76405 | 54.13340 | 38861 ft | 532 kts | 82° |
| 2026-05-07 06:43 | 24.77591 | 54.21375 | 38860 ft | 532 kts | 82° |
| 2026-05-07 06:43 | 24.78761 | 54.29409 | 38861 ft | 532 kts | 82° |
| 2026-05-07 06:44 | 24.79894 | 54.37441 | 38862 ft | 531 kts | 82° |
| 2026-05-07 06:44 | 24.81011 | 54.45482 | 38861 ft | 531 kts | 82° |
| 2026-05-07 06:45 | 24.82121 | 54.53518 | 38855 ft | 531 kts | 82° |
| 2026-05-07 06:45 | 24.83229 | 54.61564 | 38855 ft | 531 kts | 82° |
| 2026-05-07 06:46 | 24.84333 | 54.69601 | 38856 ft | 531 kts | 82° |
| 2026-05-07 06:46 | 24.85433 | 54.77648 | 38857 ft | 531 kts | 82° |
| 2026-05-07 06:47 | 24.86529 | 54.85692 | 38867 ft | 531 kts | 82° |
| 2026-05-07 06:47 | 24.87621 | 54.93738 | 38872 ft | 531 kts | 82° |
| 2026-05-07 06:48 | 24.88706 | 55.01770 | 38878 ft | 530 kts | 82° |
| 2026-05-07 06:48 | 24.89785 | 55.09794 | 38884 ft | 530 kts | 82° |
| 2026-05-07 06:49 | 24.90860 | 55.17820 | 38884 ft | 530 kts | 82° |
| 2026-05-07 06:49 | 24.91930 | 55.25839 | 38883 ft | 529 kts | 83° |
| 2026-05-07 06:50 | 24.92990 | 55.33816 | 38871 ft | 530 kts | 82° |
| 2026-05-07 06:50 | 24.94052 | 55.41848 | 38871 ft | 530 kts | 83° |
| 2026-05-07 06:51 | 24.95110 | 55.49876 | 38868 ft | 530 kts | 83° |
| 2026-05-07 06:51 | 24.96164 | 55.57907 | 38866 ft | 529 kts | 83° |
| 2026-05-07 06:52 | 24.97213 | 55.65938 | 38867 ft | 529 kts | 83° |
| 2026-05-07 06:52 | 24.98257 | 55.73964 | 38865 ft | 529 kts | 83° |
| 2026-05-07 06:53 | 24.99296 | 55.81989 | 38859 ft | 529 kts | 83° |
| 2026-05-07 06:53 | 25.00332 | 55.90027 | 38856 ft | 529 kts | 83° |
| 2026-05-07 06:54 | 25.01364 | 55.98064 | 38857 ft | 529 kts | 83° |
| 2026-05-07 06:54 | 25.02391 | 56.06100 | 38840 ft | 529 kts | 83° |
| 2026-05-07 06:55 | 25.03415 | 56.14141 | 38835 ft | 529 kts | 83° |
| 2026-05-07 06:55 | 25.04433 | 56.22181 | 38834 ft | 530 kts | 83° |
| 2026-05-07 06:56 | 25.05448 | 56.30227 | 38833 ft | 530 kts | 83° |
| 2026-05-07 06:56 | 25.06453 | 56.38225 | 38829 ft | 530 kts | 83° |
| 2026-05-07 06:57 | 25.07460 | 56.46282 | 38826 ft | 530 kts | 83° |
| 2026-05-07 06:57 | 25.07882 | 56.54361 | 38820 ft | 527 kts | 97° |
| 2026-05-07 06:58 | 25.06698 | 56.62313 | 38814 ft | 526 kts | 103° |
| 2026-05-07 06:58 | 25.05190 | 56.70202 | 38810 ft | 525 kts | 104° |
| 2026-05-07 06:59 | 25.03643 | 56.78057 | 38813 ft | 524 kts | 104° |
| 2026-05-07 06:59 | 25.02118 | 56.85905 | 38816 ft | 524 kts | 104° |
| 2026-05-07 07:00 | 25.00859 | 56.92438 | 38822 ft | 524 kts | 104° |
| 2026-05-07 07:00 | 24.99346 | 57.00295 | 38826 ft | 524 kts | 104° |
| 2026-05-07 07:01 | 24.97833 | 57.08154 | 38826 ft | 524 kts | 104° |
| 2026-05-07 07:01 | 24.96308 | 57.16007 | 38827 ft | 524 kts | 104° |
| 2026-05-07 07:02 | 24.94777 | 57.23864 | 38822 ft | 525 kts | 104° |
| 2026-05-07 07:02 | 24.93246 | 57.31708 | 38829 ft | 523 kts | 104° |
| 2026-05-07 07:03 | 24.91714 | 57.39535 | 38835 ft | 522 kts | 104° |
| 2026-05-07 07:03 | 24.90180 | 57.47354 | 38836 ft | 522 kts | 104° |
| 2026-05-07 07:04 | 24.88641 | 57.55171 | 38834 ft | 522 kts | 104° |
| 2026-05-07 07:04 | 24.87099 | 57.62986 | 38837 ft | 522 kts | 104° |
| 2026-05-07 07:05 | 24.85552 | 57.70799 | 38838 ft | 523 kts | 104° |
| 2026-05-07 07:05 | 24.83999 | 57.78622 | 38837 ft | 523 kts | 104° |
| 2026-05-07 07:06 | 24.82440 | 57.86452 | 38834 ft | 523 kts | 104° |
| 2026-05-07 07:06 | 24.80861 | 57.94236 | 38841 ft | 521 kts | 104° |
| 2026-05-07 07:07 | 24.79270 | 58.02013 | 38835 ft | 521 kts | 104° |
| 2026-05-07 07:07 | 24.77680 | 58.09792 | 38837 ft | 521 kts | 104° |
| 2026-05-07 07:08 | 24.76088 | 58.17571 | 38836 ft | 521 kts | 104° |
| 2026-05-07 07:08 | 24.74494 | 58.25347 | 38837 ft | 522 kts | 104° |
| 2026-05-07 07:09 | 24.72891 | 58.33142 | 38836 ft | 523 kts | 104° |
| 2026-05-07 07:09 | 24.71283 | 58.40938 | 38837 ft | 523 kts | 104° |
| 2026-05-07 07:10 | 24.69673 | 58.48727 | 38836 ft | 523 kts | 104° |
| 2026-05-07 07:10 | 24.68066 | 58.56473 | 38839 ft | 524 kts | 104° |
| 2026-05-07 07:11 | 24.66444 | 58.64279 | 38838 ft | 524 kts | 104° |
| 2026-05-07 07:11 | 24.64817 | 58.72081 | 38834 ft | 524 kts | 104° |
| 2026-05-07 07:12 | 24.63186 | 58.79882 | 38834 ft | 524 kts | 104° |
| 2026-05-07 07:12 | 24.61551 | 58.87678 | 38831 ft | 524 kts | 104° |
| 2026-05-07 07:13 | 24.59912 | 58.95475 | 38832 ft | 523 kts | 104° |
| 2026-05-07 07:13 | 24.58270 | 59.03269 | 38841 ft | 523 kts | 104° |
| 2026-05-07 07:14 | 24.56625 | 59.11051 | 38835 ft | 523 kts | 104° |
| 2026-05-07 07:14 | 24.54978 | 59.18822 | 38835 ft | 522 kts | 104° |
| 2026-05-07 07:15 | 24.53329 | 59.26587 | 38831 ft | 522 kts | 104° |
| 2026-05-07 07:15 | 24.51673 | 59.34351 | 38831 ft | 522 kts | 104° |
| 2026-05-07 07:16 | 24.50012 | 59.42114 | 38829 ft | 523 kts | 104° |
| 2026-05-07 07:16 | 24.48347 | 59.49880 | 38829 ft | 523 kts | 104° |
| 2026-05-07 07:17 | 24.46678 | 59.57646 | 38830 ft | 523 kts | 104° |
| 2026-05-07 07:17 | 24.45004 | 59.65413 | 38832 ft | 523 kts | 104° |
| 2026-05-07 07:18 | 24.43328 | 59.73173 | 38832 ft | 522 kts | 104° |
| 2026-05-07 07:18 | 24.41651 | 59.80916 | 38831 ft | 521 kts | 105° |
| 2026-05-07 07:19 | 24.39973 | 59.88644 | 38832 ft | 521 kts | 105° |
| 2026-05-07 07:19 | 24.38286 | 59.96386 | 38830 ft | 521 kts | 105° |
| 2026-05-07 07:20 | 24.36610 | 60.04066 | 38832 ft | 521 kts | 105° |
| 2026-05-07 07:20 | 24.34919 | 60.11794 | 38832 ft | 521 kts | 105° |
| 2026-05-07 07:21 | 24.33225 | 60.19523 | 38826 ft | 521 kts | 105° |
| 2026-05-07 07:21 | 24.31526 | 60.27252 | 38826 ft | 521 kts | 105° |
| 2026-05-07 07:22 | 24.29825 | 60.34971 | 38827 ft | 521 kts | 105° |
| 2026-05-07 07:22 | 24.28122 | 60.42677 | 38824 ft | 520 kts | 105° |
| 2026-05-07 07:23 | 24.26417 | 60.50374 | 38833 ft | 520 kts | 105° |
| 2026-05-07 07:23 | 24.24708 | 60.58072 | 38831 ft | 520 kts | 105° |
| 2026-05-07 07:24 | 24.22995 | 60.65765 | 38828 ft | 520 kts | 105° |
| 2026-05-07 07:24 | 24.21278 | 60.73463 | 38827 ft | 520 kts | 105° |
| 2026-05-07 07:25 | 24.18697 | 60.85011 | 38824 ft | 521 kts | 105° |
| 2026-05-07 07:26 | 24.16972 | 60.92717 | 38818 ft | 521 kts | 105° |
| 2026-05-07 07:26 | 24.15254 | 61.00370 | 38811 ft | 520 kts | 105° |
| 2026-05-07 07:27 | 24.13524 | 61.08057 | 38818 ft | 520 kts | 105° |
| 2026-05-07 07:27 | 24.11790 | 61.15744 | 38815 ft | 520 kts | 105° |
| 2026-05-07 07:28 | 24.10051 | 61.23432 | 38821 ft | 521 kts | 105° |
| 2026-05-07 07:28 | 24.08488 | 61.31167 | 38834 ft | 521 kts | 97° |
| 2026-05-07 07:29 | 24.08649 | 61.39069 | 38829 ft | 521 kts | 82° |
| 2026-05-07 07:29 | 24.09715 | 61.46921 | 38818 ft | 522 kts | 80° |
| 2026-05-07 07:30 | 24.10912 | 61.54756 | 38820 ft | 522 kts | 80° |
| 2026-05-07 07:30 | 24.11904 | 61.61325 | 38830 ft | 522 kts | 80° |
| 2026-05-07 07:31 | 24.13242 | 61.70442 | 38829 ft | 522 kts | 80° |
| 2026-05-07 07:31 | 24.14377 | 61.78291 | 38816 ft | 522 kts | 81° |
| 2026-05-07 07:32 | 24.15472 | 61.86151 | 38821 ft | 522 kts | 81° |
| 2026-05-07 07:32 | 24.16530 | 61.94009 | 38823 ft | 522 kts | 81° |
| 2026-05-07 07:33 | 24.17591 | 62.01875 | 38815 ft | 522 kts | 81° |
| 2026-05-07 07:33 | 24.18638 | 62.09636 | 38812 ft | 522 kts | 81° |
| 2026-05-07 07:34 | 24.19636 | 62.17067 | 38824 ft | 522 kts | 81° |
| 2026-05-07 07:34 | 24.20689 | 62.24937 | 38820 ft | 523 kts | 81° |
| 2026-05-07 07:35 | 24.21741 | 62.32823 | 38814 ft | 523 kts | 81° |
| 2026-05-07 07:35 | 24.22788 | 62.40707 | 38812 ft | 523 kts | 81° |
| 2026-05-07 07:36 | 24.23832 | 62.48599 | 38813 ft | 523 kts | 81° |
| 2026-05-07 07:36 | 24.24872 | 62.56493 | 38813 ft | 523 kts | 81° |
| 2026-05-07 07:37 | 24.25908 | 62.64391 | 38811 ft | 524 kts | 81° |
| 2026-05-07 07:37 | 24.26942 | 62.72299 | 38812 ft | 524 kts | 81° |
| 2026-05-07 07:38 | 24.27971 | 62.80206 | 38814 ft | 524 kts | 81° |
| 2026-05-07 07:38 | 24.28989 | 62.88063 | 38812 ft | 524 kts | 81° |
| 2026-05-07 07:39 | 24.30011 | 62.95984 | 38808 ft | 525 kts | 81° |
| 2026-05-07 07:39 | 24.31029 | 63.03904 | 38810 ft | 525 kts | 81° |
| 2026-05-07 07:40 | 24.32043 | 63.11825 | 38810 ft | 525 kts | 81° |
| 2026-05-07 07:40 | 24.33052 | 63.19743 | 38818 ft | 524 kts | 81° |
| 2026-05-07 07:41 | 24.34056 | 63.27654 | 38811 ft | 524 kts | 81° |
| 2026-05-07 07:41 | 24.35055 | 63.35568 | 38813 ft | 524 kts | 81° |
| 2026-05-07 07:42 | 24.36051 | 63.43477 | 38811 ft | 524 kts | 81° |
| 2026-05-07 07:42 | 24.37042 | 63.51389 | 38813 ft | 524 kts | 81° |
| 2026-05-07 07:43 | 24.38024 | 63.59263 | 38807 ft | 524 kts | 81° |
| 2026-05-07 07:43 | 24.39008 | 63.67188 | 38808 ft | 524 kts | 81° |
| 2026-05-07 07:44 | 24.39989 | 63.75115 | 38809 ft | 524 kts | 81° |
| 2026-05-07 07:44 | 24.40965 | 63.83048 | 38807 ft | 525 kts | 81° |
| 2026-05-07 07:45 | 24.41938 | 63.90980 | 38805 ft | 525 kts | 81° |
| 2026-05-07 07:45 | 24.42907 | 63.98922 | 38804 ft | 525 kts | 81° |
| 2026-05-07 07:46 | 24.43872 | 64.06861 | 38806 ft | 525 kts | 81° |
| 2026-05-07 07:46 | 24.44832 | 64.14799 | 38803 ft | 525 kts | 81° |
| 2026-05-07 07:47 | 24.45627 | 64.21401 | 38803 ft | 525 kts | 81° |